CheckWX is a tool to help pilots better visualize weather data.  It is not intended as a substitute for an official pre-flight weather briefing.

20:34:20 UTC

CYCY TAF
Clyde River Airport
Clyde River, Canada
TAF CYCY 221849Z 2219/2307 30007KT P6SM -SN SCT040 BKN070 FM230000 30010KT P6SM IC FEW040 SCT120 RMK NXT FCST BY 230100Z

Mar-22@
19:00 UTC

Mar-22 @ 19:00 UTC

Mar-23@
00:00 UTC

Mar-23 @ 00:00 UTC

TAF CYCY 221849Z 2219/2307 30007KT P6SM -SN SCT040 BKN070
Wind
  • 300° at 7 KTS
Conditions
Light Snow
Cloud Levels
  • Scattered at 4,000' AGL
  • Broken at 7,000' AGL

Mar-23@
00:00 UTC

Mar-23 @ 00:00 UTC

Mar-23@
07:00 UTC

Mar-23 @ 07:00 UTC

FM230000 30010KT P6SM IC FEW040 SCT120 RMK NXT FCST BY 230100Z

From

From Standard forecast or significant change

Wind
  • 300° at 10 KTS
Conditions
Ice crystals
Cloud Levels
  • Few at 4,000' AGL
  • Scattered at 12,000' AGL